createdAt,value
2023-05-12T00:05:57.397Z,98228.28
2023-05-12T00:26:00.569Z,98231.22
2023-05-12T01:06:41.193Z,98253.34
2023-05-12T01:26:44.147Z,98258.44
2023-05-12T01:46:47.984Z,98246.44
2023-05-12T02:07:01.264Z,98244.56
2023-05-12T02:27:04.199Z,98248.87
2023-05-12T02:47:07.261Z,98258.66
2023-05-12T03:07:10.148Z,98266.03
2023-05-12T03:27:13.397Z,98257.88
2023-05-12T03:47:16.378Z,98256.75
2023-05-12T04:07:19.260Z,98253.81
2023-05-12T04:27:22.347Z,98260.25
2023-05-12T05:28:37.025Z,98296.34
2023-05-12T05:48:45.056Z,98297.91
2023-05-12T06:08:47.754Z,98320.38
2023-05-12T06:28:50.468Z,98323.59
2023-05-12T06:48:53.644Z,98330.28
2023-05-12T07:08:56.330Z,98334.25
2023-05-12T07:29:01.941Z,98327.81
2023-05-12T07:49:04.648Z,98331.94
2023-05-12T08:09:07.464Z,98333.44
2023-05-12T08:29:11.408Z,98338.56
2023-05-12T08:49:14.427Z,98335.78
2023-05-12T09:09:17.318Z,98352.41
2023-05-12T09:29:30.684Z,98353.28
2023-05-12T09:49:34.367Z,98356.22
2023-05-12T10:09:37.486Z,98341.78
2023-05-12T10:29:40.244Z,98336.31
2023-05-12T10:49:43.325Z,98350.62
2023-05-12T11:29:52.194Z,98350.47
2023-05-12T11:49:55.790Z,98351.56
2023-05-12T12:10:00.156Z,98355.00
2023-05-12T12:30:03.183Z,98368.13
2023-05-12T12:50:05.972Z,98356.72
2023-05-12T13:10:09.087Z,98347.44
2023-05-12T13:30:13.684Z,98352.94
2023-05-12T13:50:16.883Z,98338.38
2023-05-12T14:10:20.009Z,98326.09
2023-05-12T14:30:27.988Z,98328.81
2023-05-12T14:50:30.955Z,98331.16
2023-05-12T15:10:33.611Z,98329.00
2023-05-12T15:30:37.656Z,98336.31
2023-05-12T15:50:40.329Z,98337.16
2023-05-12T16:10:43.105Z,98344.03
2023-05-12T16:30:46.646Z,98348.94
2023-05-12T16:50:49.682Z,98358.72
2023-05-12T17:10:55.806Z,98366.88
2023-05-12T17:30:59.488Z,98381.50
2023-05-12T17:51:02.296Z,98389.75
2023-05-12T18:11:07.552Z,98413.38
2023-05-12T18:51:17.061Z,98433.59
2023-05-12T19:11:19.962Z,98446.53
2023-05-12T19:31:22.770Z,98453.37
2023-05-12T19:51:25.635Z,98451.16
2023-05-12T20:11:29.303Z,98467.72
2023-05-12T20:31:32.567Z,98470.72
2023-05-12T20:51:35.974Z,98461.03
2023-05-12T21:11:38.623Z,98454.00
2023-05-12T21:31:42.487Z,98466.84
2023-05-12T21:51:45.156Z,98466.50
2023-05-12T22:11:47.980Z,98469.28
2023-05-12T22:31:50.706Z,98471.66
2023-05-12T22:51:53.455Z,98491.03
2023-05-12T23:11:56.122Z,98478.22
2023-05-12T23:32:00.066Z,98485.09
2023-05-12T23:52:02.933Z,98503.19
